Time;durP1;ratioP1;P1;durP2;ratioP2;P2;SDS_P1;SDS_P2;PMS_P1;PMS_P2;Temp;Humidity;BMP_temperature;BMP_pressure;BME280_temperature;BME280_humidity;BME280_pressure;Samples;Min_cycle;Max_cycle;Signal;HPM_P1;HPM_P2
2023/08/21 00:02:27;;;;;;;9.13;8.43;;;21.90;94.20;;;;;;5065380;28;20427;-70
2023/08/21 00:04:54;;;;;;;9.07;8.38;;;21.90;94.70;;;;;;5069139;28;20451;-69
2023/08/21 00:07:21;;;;;;;9.02;8.32;;;21.90;94.80;;;;;;5065243;28;20455;-69
2023/08/21 00:09:48;;;;;;;8.95;8.15;;;21.90;95.40;;;;;;5066738;28;20456;-70
2023/08/21 00:12:16;;;;;;;9.30;8.50;;;21.90;95.80;;;;;;5059798;28;20431;-69
2023/08/21 00:14:42;;;;;;;9.90;8.90;;;21.80;95.30;;;;;;5071022;28;20701;-69
2023/08/21 00:17:09;;;;;;;8.90;8.20;;;21.80;96.20;;;;;;5062299;28;20431;-69
2023/08/21 00:19:36;;;;;;;9.52;8.65;;;21.80;95.90;;;;;;5069694;28;20427;-69
2023/08/21 00:22:03;;;;;;;9.32;8.52;;;21.80;96.40;;;;;;5063675;28;20404;-69
2023/08/21 00:24:29;;;;;;;8.93;8.23;;;21.80;96.90;;;;;;5057459;28;20411;-69
2023/08/21 00:26:56;;;;;;;10.05;9.05;;;21.70;95.50;;;;;;5063164;28;20435;-69
2023/08/21 00:29:24;;;;;;;9.50;8.70;;;21.70;95.70;;;;;;5059906;28;20427;-69
2023/08/21 00:31:51;;;;;;;9.90;9.00;;;21.70;96.10;;;;;;5065405;28;20424;-69
2023/08/21 00:34:18;;;;;;;9.70;8.90;;;21.60;96.10;;;;;;5062601;28;20439;-69
2023/08/21 00:36:44;;;;;;;9.93;9.02;;;21.60;96.30;;;;;;5062948;28;20432;-69
2023/08/21 00:39:11;;;;;;;10.45;9.45;;;21.60;96.20;;;;;;5065903;28;20928;-69
2023/08/21 00:41:38;;;;;;;10.20;9.40;;;21.60;96.30;;;;;;5056246;28;20930;-69
2023/08/21 00:44:05;;;;;;;10.32;9.52;;;21.60;96.50;;;;;;5063327;28;20436;-69
2023/08/21 00:46:33;;;;;;;10.57;9.77;;;21.60;96.10;;;;;;5062922;28;20454;-69
2023/08/21 00:49:00;;;;;;;11.20;10.30;;;21.60;96.10;;;;;;5062231;28;20431;-70
2023/08/21 00:51:27;;;;;;;10.87;9.97;;;21.60;96.60;;;;;;5063104;28;20940;-69
2023/08/21 00:53:54;;;;;;;10.32;9.57;;;21.60;96.00;;;;;;5063149;28;20431;-69
2023/08/21 00:56:21;;;;;;;10.45;9.55;;;21.60;96.20;;;;;;5059783;28;20523;-69
2023/08/21 00:58:48;;;;;;;10.18;9.38;;;21.60;95.90;;;;;;5064062;28;20435;-69
2023/08/21 01:01:18;;;;;;;10.57;9.77;;;21.60;96.70;;;;;;5071647;28;20427;-70
2023/08/21 01:03:46;;;;;;;10.70;9.80;;;21.60;96.30;;;;;;5070081;28;20506;-71
2023/08/21 01:06:13;;;;;;;10.50;9.63;;;21.60;96.60;;;;;;5059965;28;20422;-69
2023/08/21 01:08:48;;;;;;;10.35;9.55;;;21.50;96.30;;;;;;5069914;28;20458;-69
2023/08/21 01:11:21;;;;;;;10.75;9.95;;;21.50;97.00;;;;;;5067698;28;20427;-69
2023/08/21 01:13:56;;;;;;;11.07;10.13;;;21.60;97.90;;;;;;5068333;28;20431;-69
2023/08/21 01:16:23;;;;;;;10.35;9.45;;;21.60;98.60;;;;;;5065662;28;20427;-69
2023/08/21 01:18:53;;;;;;;9.90;9.00;;;21.50;98.90;;;;;;5066602;28;20438;-69
2023/08/21 01:21:20;;;;;;;10.20;9.40;;;21.50;99.20;;;;;;5067473;28;20427;-69
2023/08/21 01:23:48;;;;;;;10.00;9.00;;;21.50;99.10;;;;;;5068126;28;20909;-69
2023/08/21 01:26:15;;;;;;;9.43;8.73;;;21.50;99.40;;;;;;5065025;28;20427;-69
2023/08/21 01:28:42;;;;;;;9.23;8.33;;;21.50;99.40;;;;;;5066934;28;20431;-69
2023/08/21 01:31:15;;;;;;;9.10;8.32;;;21.50;99.00;;;;;;5065349;28;20535;-69
2023/08/21 01:33:48;;;;;;;8.25;7.55;;;21.40;98.60;;;;;;5067501;28;20454;-68
2023/08/21 01:36:15;;;;;;;8.25;7.45;;;21.40;99.00;;;;;;5062267;28;20792;-68
2023/08/21 01:38:43;;;;;;;7.90;7.20;;;21.40;98.90;;;;;;5065216;28;20945;-68
2023/08/21 01:41:11;;;;;;;8.40;7.70;;;21.30;99.10;;;;;;5064622;28;20425;-69
2023/08/21 01:43:37;;;;;;;8.20;7.50;;;21.30;99.80;;;;;;5063294;28;20428;-68
2023/08/21 01:46:04;;;;;;;7.60;7.00;;;21.30;99.40;;;;;;5066555;28;20431;-68
2023/08/21 01:48:31;;;;;;;8.00;7.40;;;21.30;99.60;;;;;;5066719;28;20797;-68
2023/08/21 01:50:57;;;;;;;8.20;7.50;;;21.30;99.30;;;;;;5074076;28;20424;-68
2023/08/21 01:53:24;;;;;;;8.40;7.60;;;21.30;99.70;;;;;;5068226;28;20431;-68
2023/08/21 01:55:51;;;;;;;8.68;7.88;;;21.20;99.50;;;;;;5068841;28;20439;-68
2023/08/21 01:58:19;;;;;;;8.27;7.47;;;21.30;99.90;;;;;;5070382;28;20794;-68
2023/08/21 02:00:47;;;;;;;8.38;7.68;;;21.20;99.90;;;;;;5080578;28;20848;-69
2023/08/21 02:03:14;;;;;;;9.20;8.40;;;21.20;99.90;;;;;;5067802;28;20427;-69
2023/08/21 02:05:41;;;;;;;9.80;9.00;;;21.20;99.90;;;;;;5066370;28;20433;-69
2023/08/21 02:08:10;;;;;;;9.40;8.70;;;21.20;99.90;;;;;;5068522;28;20424;-69
2023/08/21 02:10:37;;;;;;;9.35;8.45;;;21.20;99.90;;;;;;5065499;28;20932;-69
2023/08/21 02:13:04;;;;;;;9.75;8.88;;;21.20;99.90;;;;;;5067098;28;20427;-69
2023/08/21 02:15:32;;;;;;;8.02;7.43;;;21.20;99.90;;;;;;5068980;28;20428;-70
2023/08/21 02:17:59;;;;;;;8.70;7.80;;;21.20;99.90;;;;;;5067136;28;20438;-69
2023/08/21 02:20:26;;;;;;;8.70;7.80;;;21.20;99.90;;;;;;5063875;28;20431;-69
2023/08/21 02:22:52;;;;;;;7.72;7.03;;;21.10;99.90;;;;;;5068885;28;20431;-69
2023/08/21 02:25:19;;;;;;;7.63;7.03;;;21.10;99.90;;;;;;5066465;28;20424;-69
2023/08/21 02:27:46;;;;;;;8.07;7.38;;;21.00;99.90;;;;;;5073102;28;20408;-69
2023/08/21 02:30:13;;;;;;;7.30;6.70;;;21.00;99.90;;;;;;5057181;28;20430;-69
2023/08/21 02:32:41;;;;;;;7.40;6.75;;;21.00;99.90;;;;;;5065755;28;20428;-69
2023/08/21 02:35:09;;;;;;;7.50;6.90;;;21.00;99.90;;;;;;5065433;28;20407;-69
2023/08/21 02:37:38;;;;;;;7.43;6.80;;;21.00;99.80;;;;;;5070641;28;20424;-69
2023/08/21 02:40:08;;;;;;;7.27;6.57;;;21.00;99.90;;;;;;5061235;28;20450;-69
2023/08/21 02:42:35;;;;;;;7.65;6.95;;;20.90;99.90;;;;;;5065049;28;20502;-69
2023/08/21 02:45:07;;;;;;;6.95;6.25;;;20.90;99.90;;;;;;5064380;22;20469;-76
2023/08/21 02:47:35;;;;;;;6.63;6.13;;;20.90;99.90;;;;;;5034333;28;20430;-78
2023/08/21 02:50:03;;;;;;;7.20;6.60;;;20.90;99.90;;;;;;5034209;28;20437;-76
2023/08/21 02:52:30;;;;;;;7.10;6.60;;;20.90;99.90;;;;;;5036312;28;20438;-78
2023/08/21 02:54:56;;;;;;;7.30;6.70;;;20.90;99.90;;;;;;5046868;28;20433;-78
2023/08/21 02:57:24;;;;;;;7.28;6.57;;;20.90;99.90;;;;;;5034382;28;20427;-78
2023/08/21 02:59:51;;;;;;;7.63;6.93;;;20.90;99.90;;;;;;5037963;28;20481;-77
2023/08/21 03:02:18;;;;;;;7.67;6.97;;;20.90;99.90;;;;;;5028712;28;20431;-77
2023/08/21 03:04:45;;;;;;;6.95;6.25;;;20.90;99.90;;;;;;5027185;28;20435;-77
2023/08/21 03:07:13;;;;;;;7.45;6.75;;;20.90;99.90;;;;;;5043448;28;20591;-78
2023/08/21 03:09:41;;;;;;;8.00;7.35;;;20.90;99.90;;;;;;5033785;28;20434;-78
2023/08/21 03:12:09;;;;;;;8.30;7.50;;;20.90;99.90;;;;;;5029693;28;20495;-76
2023/08/21 03:14:35;;;;;;;7.72;7.13;;;20.90;99.90;;;;;;5037787;28;20417;-76
2023/08/21 03:17:02;;;;;;;7.13;6.53;;;20.90;99.90;;;;;;5032690;28;20701;-79
2023/08/21 03:19:29;;;;;;;7.95;7.35;;;20.90;99.90;;;;;;5028461;28;20443;-78
2023/08/21 03:21:56;;;;;;;7.90;7.20;;;20.90;99.90;;;;;;5030029;28;20434;-77
2023/08/21 03:24:24;;;;;;;7.88;7.18;;;20.90;99.90;;;;;;5032393;28;20457;-76
2023/08/21 03:26:50;;;;;;;8.10;7.40;;;20.90;99.90;;;;;;5039511;28;20431;-77
2023/08/21 03:29:17;;;;;;;7.90;7.10;;;20.90;99.90;;;;;;5041380;28;20438;-75
2023/08/21 03:31:44;;;;;;;8.63;7.70;;;20.90;99.90;;;;;;5032909;28;20933;-78
2023/08/21 03:34:11;;;;;;;8.35;7.55;;;20.90;99.90;;;;;;5037703;28;20430;-78
2023/08/21 03:36:38;;;;;;;8.30;7.60;;;20.90;99.90;;;;;;5040017;28;20415;-78
2023/08/21 03:39:05;;;;;;;9.10;8.30;;;20.90;99.90;;;;;;5033014;28;20429;-78
2023/08/21 03:41:33;;;;;;;9.45;8.65;;;20.90;99.90;;;;;;5041708;28;20456;-77
2023/08/21 03:44:00;;;;;;;9.20;8.40;;;20.90;99.90;;;;;;5034611;28;20919;-76
2023/08/21 03:46:27;;;;;;;8.85;8.05;;;20.90;99.90;;;;;;5036902;28;20429;-78
2023/08/21 03:48:53;;;;;;;9.35;8.55;;;20.80;99.90;;;;;;5034932;28;20415;-77
2023/08/21 03:51:20;;;;;;;8.90;8.10;;;20.80;99.90;;;;;;5039673;28;20919;-79
2023/08/21 03:53:47;;;;;;;9.27;8.47;;;20.80;99.90;;;;;;5036690;28;20431;-77
2023/08/21 03:56:14;;;;;;;9.35;8.63;;;20.80;99.90;;;;;;5042686;28;20437;-78
2023/08/21 03:58:42;;;;;;;8.77;7.97;;;20.80;99.90;;;;;;5035235;28;20443;-76
2023/08/21 04:01:08;;;;;;;9.82;8.98;;;20.80;99.90;;;;;;5036725;28;20437;-78
2023/08/21 04:03:35;;;;;;;8.50;7.70;;;20.80;99.90;;;;;;5032303;28;20419;-78
2023/08/21 04:06:03;;;;;;;8.95;8.18;;;20.80;99.90;;;;;;5043414;28;20417;-78
2023/08/21 04:08:29;;;;;;;8.30;7.60;;;20.80;99.90;;;;;;5036001;28;20446;-77
2023/08/21 04:10:59;;;;;;;8.57;7.80;;;20.70;99.90;;;;;;5030559;28;20502;-79
2023/08/21 04:13:25;;;;;;;8.43;7.53;;;20.70;99.90;;;;;;5029526;28;20438;-78
2023/08/21 04:15:55;;;;;;;9.05;8.20;;;20.70;99.90;;;;;;5035512;28;20446;-78
2023/08/21 04:18:22;;;;;;;8.45;7.68;;;20.70;99.90;;;;;;5032374;28;20419;-78
2023/08/21 04:20:49;;;;;;;8.52;7.82;;;20.60;99.90;;;;;;5041320;28;20431;-77
2023/08/21 04:23:16;;;;;;;8.32;7.63;;;20.60;99.90;;;;;;5035356;28;20912;-78
2023/08/21 04:25:43;;;;;;;7.80;7.20;;;20.60;99.90;;;;;;5031652;28;20435;-77
2023/08/21 04:28:10;;;;;;;8.20;7.20;;;20.60;99.90;;;;;;5027444;28;20504;-77
2023/08/21 04:30:36;;;;;;;12.93;11.73;;;20.60;99.90;;;;;;5035338;28;20463;-75
2023/08/21 04:33:05;;;;;;;8.90;8.00;;;20.50;99.90;;;;;;5049205;28;20942;-76
2023/08/21 04:35:37;;;;;;;7.85;7.10;;;20.50;99.90;;;;;;5041276;28;20512;-76
2023/08/21 04:38:04;;;;;;;8.40;7.70;;;20.50;99.90;;;;;;5035063;28;20417;-77
2023/08/21 04:40:31;;;;;;;7.90;7.20;;;20.40;99.90;;;;;;5037258;28;20981;-76
2023/08/21 04:42:58;;;;;;;7.53;6.90;;;20.40;99.90;;;;;;5033435;28;20936;-77
2023/08/21 04:45:24;;;;;;;7.60;6.90;;;20.40;99.90;;;;;;5034706;28;20442;-77
2023/08/21 04:47:51;;;;;;;8.75;7.47;;;20.40;99.90;;;;;;5033971;28;20430;-78
2023/08/21 04:50:19;;;;;;;8.05;7.45;;;20.40;99.90;;;;;;5032605;28;20454;-76
2023/08/21 04:52:46;;;;;;;8.70;7.90;;;20.40;99.90;;;;;;5035663;28;20438;-77
2023/08/21 04:55:13;;;;;;;8.18;7.38;;;20.40;99.90;;;;;;5038934;28;20425;-76
2023/08/21 04:57:39;;;;;;;8.25;7.55;;;20.40;99.90;;;;;;5033018;28;20449;-76
2023/08/21 05:00:08;;;;;;;8.83;7.93;;;20.40;99.90;;;;;;5026497;28;20508;-76
2023/08/21 05:02:35;;;;;;;8.80;8.05;;;20.30;99.90;;;;;;5030535;28;20580;-68
2023/08/21 05:05:02;;;;;;;9.75;8.90;;;20.30;99.90;;;;;;5025963;28;20846;-65
2023/08/21 05:07:30;;;;;;;9.40;8.60;;;20.30;99.90;;;;;;5035267;28;20429;-68
2023/08/21 05:10:00;;;;;;;9.73;8.82;;;20.30;99.90;;;;;;5034324;28;20437;-67
2023/08/21 05:12:27;;;;;;;9.80;8.90;;;20.30;99.90;;;;;;5030486;28;20430;-68
2023/08/21 05:14:54;;;;;;;10.00;9.10;;;20.20;99.90;;;;;;5032507;28;20929;-68
2023/08/21 05:17:20;;;;;;;10.30;9.40;;;20.20;99.90;;;;;;5034137;28;20512;-65
2023/08/21 05:19:48;;;;;;;10.38;9.48;;;20.20;99.90;;;;;;5048423;28;20431;-66
2023/08/21 05:22:14;;;;;;;10.27;9.35;;;20.20;99.90;;;;;;5056172;28;20475;-66
2023/08/21 05:24:42;;;;;;;10.20;9.30;;;20.20;99.90;;;;;;5045648;28;20418;-67
2023/08/21 05:27:09;;;;;;;11.00;10.10;;;20.20;99.90;;;;;;5049596;28;20442;-68
2023/08/21 05:29:36;;;;;;;9.50;8.70;;;20.20;99.90;;;;;;5044841;28;20799;-69
2023/08/21 05:32:03;;;;;;;10.25;9.20;;;20.30;99.90;;;;;;5043679;28;20420;-69
2023/08/21 05:34:30;;;;;;;11.05;10.15;;;20.30;99.90;;;;;;5038074;28;20435;-70
2023/08/21 05:36:56;;;;;;;11.18;10.00;;;20.30;99.90;;;;;;5042880;28;20438;-70
2023/08/21 05:39:23;;;;;;;10.40;9.40;;;20.30;99.90;;;;;;5037898;28;20436;-69
2023/08/21 05:41:52;;;;;;;10.70;9.80;;;20.30;99.90;;;;;;5051171;28;20410;-69
2023/08/21 05:44:19;;;;;;;11.85;10.75;;;20.40;99.90;;;;;;5032754;28;20433;-70
2023/08/21 05:46:45;;;;;;;13.73;12.35;;;20.40;99.90;;;;;;5041793;28;20444;-68
2023/08/21 05:49:12;;;;;;;13.07;11.68;;;20.40;99.90;;;;;;5033825;28;20417;-68
2023/08/21 05:51:39;;;;;;;14.57;12.40;;;20.40;99.90;;;;;;5044383;28;20518;-68
2023/08/21 05:54:06;;;;;;;13.50;12.20;;;20.50;99.90;;;;;;5032248;28;20935;-68
2023/08/21 05:56:32;;;;;;;13.57;12.20;;;20.50;99.90;;;;;;5034974;28;20430;-69
2023/08/21 05:59:00;;;;;;;13.40;12.30;;;20.50;99.90;;;;;;5042465;28;20442;-68
2023/08/21 06:01:27;;;;;;;14.02;12.50;;;20.60;99.90;;;;;;5059574;28;20498;-67
2023/08/21 06:03:54;;;;;;;13.50;12.20;;;20.70;99.90;;;;;;5063936;28;20418;-68
2023/08/21 06:06:20;;;;;;;14.27;12.77;;;20.70;99.90;;;;;;5054960;28;20417;-70
2023/08/21 06:08:48;;;;;;;14.45;13.15;;;20.70;99.90;;;;;;5031028;28;20913;-68
2023/08/21 06:11:15;;;;;;;14.18;12.68;;;20.80;99.90;;;;;;5037064;28;20421;-68
2023/08/21 06:13:42;;;;;;;13.43;12.10;;;20.90;99.90;;;;;;5042070;28;20431;-69
2023/08/21 06:16:10;;;;;;;13.17;11.97;;;21.00;99.90;;;;;;5037145;28;20460;-69
2023/08/21 06:18:37;;;;;;;14.65;13.27;;;21.10;99.90;;;;;;5030667;28;20437;-69
2023/08/21 06:21:03;;;;;;;13.70;12.60;;;21.20;99.90;;;;;;5045212;28;20442;-70
2023/08/21 06:23:30;;;;;;;13.10;11.80;;;21.30;99.90;;;;;;5032079;28;20909;-68
2023/08/21 06:25:57;;;;;;;13.52;12.10;;;21.30;99.90;;;;;;5044381;28;20949;-69
2023/08/21 06:28:24;;;;;;;12.73;11.63;;;21.40;99.90;;;;;;5035407;28;20427;-70
2023/08/21 06:30:57;;;;;;;12.50;11.30;;;21.40;99.90;;;;;;5043925;28;20445;-70
2023/08/21 06:33:25;;;;;;;12.40;11.30;;;21.40;99.90;;;;;;5035535;28;20456;-68
2023/08/21 06:35:52;;;;;;;13.23;12.02;;;21.40;99.90;;;;;;5040049;28;20427;-69
2023/08/21 06:38:19;;;;;;;13.35;12.15;;;21.50;99.90;;;;;;5036504;28;20456;-70
2023/08/21 06:40:46;;;;;;;12.82;11.73;;;21.60;99.90;;;;;;5030675;28;20446;-68
2023/08/21 06:43:13;;;;;;;13.60;12.40;;;21.60;99.90;;;;;;5034554;28;20421;-66
2023/08/21 06:45:39;;;;;;;14.00;12.60;;;21.60;99.90;;;;;;5029275;28;20441;-68
2023/08/21 06:48:07;;;;;;;13.00;12.00;;;21.70;99.90;;;;;;5035937;28;20438;-68
2023/08/21 06:50:37;;;;;;;13.68;12.48;;;21.80;99.90;;;;;;5036109;28;20430;-68
2023/08/21 06:53:04;;;;;;;13.57;12.38;;;21.80;99.90;;;;;;5039265;28;20435;-66
2023/08/21 06:55:31;;;;;;;12.63;11.73;;;22.00;99.90;;;;;;5034223;28;20601;-66
2023/08/21 06:57:58;;;;;;;13.10;12.10;;;22.00;99.80;;;;;;5030423;28;20435;-67
2023/08/21 07:00:24;;;;;;;13.35;12.25;;;22.10;99.70;;;;;;5036186;28;20484;-66
2023/08/21 07:02:51;;;;;;;13.30;12.30;;;22.10;99.50;;;;;;5034302;28;20426;-69
2023/08/21 07:05:18;;;;;;;12.80;11.70;;;22.20;99.50;;;;;;5034673;28;20442;-68
2023/08/21 07:07:46;;;;;;;13.25;12.23;;;22.30;99.40;;;;;;5032212;28;20439;-70
2023/08/21 07:10:13;;;;;;;11.95;10.95;;;22.50;99.30;;;;;;5038460;28;20449;-66
2023/08/21 07:12:39;;;;;;;10.00;9.10;;;22.60;98.90;;;;;;5031625;28;20938;-68
2023/08/21 07:15:07;;;;;;;8.85;8.05;;;22.70;97.40;;;;;;5028776;28;20477;-67
2023/08/21 07:17:34;;;;;;;9.45;8.45;;;22.80;96.80;;;;;;5034626;28;20459;-69
2023/08/21 07:20:01;;;;;;;9.90;8.90;;;22.90;96.60;;;;;;5031511;28;20430;-69
2023/08/21 07:22:28;;;;;;;9.40;8.55;;;23.00;96.10;;;;;;5028470;28;20438;-67
2023/08/21 07:24:57;;;;;;;8.98;8.20;;;23.10;95.60;;;;;;5032562;28;20493;-67
2023/08/21 07:27:23;;;;;;;9.40;8.60;;;23.20;95.30;;;;;;5038738;28;20445;-69
2023/08/21 07:29:50;;;;;;;9.90;9.00;;;23.30;94.50;;;;;;5038905;28;20466;-69
2023/08/21 07:32:17;;;;;;;9.60;8.90;;;23.30;94.20;;;;;;5036456;28;20427;-68
2023/08/21 07:34:43;;;;;;;8.90;8.20;;;23.40;93.60;;;;;;5039789;28;20433;-69
2023/08/21 07:37:10;;;;;;;8.75;7.95;;;23.40;93.50;;;;;;5032391;28;20433;-67
2023/08/21 07:39:37;;;;;;;9.40;8.48;;;23.50;93.10;;;;;;5028675;28;20434;-68
2023/08/21 07:42:05;;;;;;;9.70;8.90;;;23.60;93.30;;;;;;5027274;28;20454;-65
2023/08/21 07:44:32;;;;;;;10.20;9.23;;;23.60;93.10;;;;;;5028490;28;20411;-65
2023/08/21 07:46:59;;;;;;;9.80;8.80;;;23.70;93.20;;;;;;5031837;28;20426;-67
2023/08/21 07:49:26;;;;;;;8.95;8.15;;;23.80;92.30;;;;;;5023791;28;20445;-66
2023/08/21 07:51:52;;;;;;;8.63;7.83;;;23.90;92.60;;;;;;5025804;28;20589;-68
2023/08/21 07:54:19;;;;;;;8.02;7.32;;;24.10;91.90;;;;;;5036152;28;20919;-69
2023/08/21 07:56:46;;;;;;;8.48;7.63;;;24.20;91.80;;;;;;5031162;28;20431;-67
2023/08/21 07:59:14;;;;;;;9.20;8.50;;;24.30;91.40;;;;;;5036435;28;20418;-69
2023/08/21 08:01:41;;;;;;;8.35;7.55;;;24.50;91.50;;;;;;5035776;28;20435;-71
2023/08/21 08:04:07;;;;;;;8.40;7.50;;;24.60;91.10;;;;;;5030566;28;20433;-73
2023/08/21 08:06:34;;;;;;;9.30;8.52;;;24.80;91.20;;;;;;5046090;28;20431;-70
2023/08/21 08:09:01;;;;;;;9.25;8.00;;;24.80;89.80;;;;;;5057427;28;20433;-70
2023/08/21 08:11:27;;;;;;;9.40;8.60;;;24.90;88.30;;;;;;5056100;28;20417;-73
2023/08/21 08:13:54;;;;;;;10.20;8.10;;;25.00;88.00;;;;;;5036127;28;20423;-75
2023/08/21 08:16:22;;;;;;;9.45;7.90;;;25.00;88.40;;;;;;5025782;28;20458;-74
2023/08/21 08:18:49;;;;;;;8.10;7.50;;;25.10;87.40;;;;;;5023999;28;20439;-74
2023/08/21 08:21:16;;;;;;;9.27;8.57;;;25.20;86.90;;;;;;5037361;28;20437;-74
2023/08/21 08:23:43;;;;;;;9.10;8.20;;;25.20;85.20;;;;;;5037406;28;20419;-72
2023/08/21 08:26:09;;;;;;;9.40;8.60;;;25.30;85.30;;;;;;5038663;28;20627;-72
2023/08/21 08:28:36;;;;;;;8.80;8.00;;;25.40;85.30;;;;;;5029095;28;20437;-73
2023/08/21 08:31:03;;;;;;;9.13;8.23;;;25.40;85.70;;;;;;5026846;28;20435;-73
2023/08/21 08:33:31;;;;;;;8.00;7.35;;;25.50;83.90;;;;;;5027260;28;20427;-73
2023/08/21 08:35:58;;;;;;;7.78;7.18;;;25.70;84.50;;;;;;5037026;28;20429;-75
2023/08/21 08:38:24;;;;;;;8.40;7.50;;;25.80;85.20;;;;;;5033498;28;20946;-74
2023/08/21 08:40:54;;;;;;;8.95;8.15;;;26.00;83.90;;;;;;5029830;28;20433;-74
2023/08/21 08:43:22;;;;;;;9.40;8.60;;;26.10;80.60;;;;;;5031923;28;20429;-72
2023/08/21 08:45:51;;;;;;;8.80;8.00;;;26.10;80.60;;;;;;5082029;22;20438;-66
2023/08/21 08:48:20;;;;;;;8.80;8.00;;;26.20;81.60;;;;;;5062682;28;20560;-66
2023/08/21 08:50:49;;;;;;;8.55;7.75;;;26.20;81.20;;;;;;5064402;28;20407;-67
2023/08/21 08:53:17;;;;;;;8.30;7.60;;;26.20;80.80;;;;;;5064527;28;20432;-67
2023/08/21 08:55:44;;;;;;;8.73;8.02;;;26.30;81.10;;;;;;5063459;28;20451;-66
2023/08/21 08:58:11;;;;;;;9.15;8.52;;;26.50;80.30;;;;;;5058459;28;20427;-66
2023/08/21 09:00:38;;;;;;;8.60;7.90;;;26.70;79.10;;;;;;5063585;28;20914;-67
2023/08/21 09:03:05;;;;;;;8.65;7.85;;;26.80;78.60;;;;;;5061371;28;20439;-66
2023/08/21 09:05:32;;;;;;;9.60;8.80;;;26.80;78.10;;;;;;5056932;28;20456;-67
2023/08/21 09:08:10;;;;;;;9.05;8.25;;;26.90;77.40;;;;;;5061953;28;20438;-69
2023/08/21 09:10:37;;;;;;;7.97;7.33;;;27.10;76.40;;;;;;5056703;28;20423;-67
2023/08/21 09:13:11;;;;;;;6.95;6.35;;;27.10;77.10;;;;;;5059076;28;20925;-68
2023/08/21 09:15:38;;;;;;;7.47;6.85;;;27.30;76.40;;;;;;5062059;28;20776;-68
2023/08/21 09:18:09;;;;;;;7.65;6.95;;;27.40;76.30;;;;;;5063295;28;20434;-70
2023/08/21 09:20:36;;;;;;;7.65;6.90;;;27.50;75.00;;;;;;5070744;28;20424;-68
2023/08/21 09:23:05;;;;;;;7.43;6.63;;;27.60;74.30;;;;;;5069068;28;20493;-68
2023/08/21 09:25:35;;;;;;;7.18;6.40;;;27.70;74.30;;;;;;5071494;28;20918;-68
2023/08/21 09:28:05;;;;;;;6.80;6.20;;;27.80;73.50;;;;;;5060999;28;20437;-69
2023/08/21 09:30:44;;;;;;;7.50;6.80;;;27.90;72.70;;;;;;5063799;28;20944;-70
2023/08/21 09:33:11;;;;;;;8.73;7.93;;;28.10;71.90;;;;;;5057716;28;20467;-70
2023/08/21 09:35:39;;;;;;;8.93;6.90;;;28.10;71.00;;;;;;5071061;28;20424;-70
2023/08/21 09:38:08;;;;;;;7.70;7.00;;;28.20;71.50;;;;;;5071033;28;20444;-70
2023/08/21 09:40:35;;;;;;;8.10;7.40;;;28.10;71.30;;;;;;5063502;28;20412;-70
2023/08/21 09:43:04;;;;;;;7.10;6.50;;;28.30;70.50;;;;;;5067869;28;20419;-70
2023/08/21 09:45:32;;;;;;;7.43;6.72;;;28.30;70.70;;;;;;5067728;28;20428;-70
2023/08/21 09:47:59;;;;;;;8.00;7.30;;;28.40;69.50;;;;;;5062501;28;20675;-70
2023/08/21 09:50:29;;;;;;;9.10;6.53;;;28.60;68.50;;;;;;5065869;28;21050;-70
2023/08/21 09:52:57;;;;;;;6.65;6.00;;;28.60;68.70;;;;;;5068104;28;20408;-70
2023/08/21 09:55:29;;;;;;;7.20;6.60;;;28.60;69.00;;;;;;5065862;28;20420;-70
2023/08/21 09:57:59;;;;;;;7.07;6.38;;;28.60;68.40;;;;;;5062102;28;20425;-70
2023/08/21 10:00:29;;;;;;;8.38;7.10;;;28.80;69.20;;;;;;5066406;28;20407;-69
2023/08/21 10:03:01;;;;;;;7.72;7.03;;;28.90;66.90;;;;;;5069344;28;20430;-69
2023/08/21 10:05:28;;;;;;;9.05;8.15;;;28.90;67.20;;;;;;5061130;28;20429;-69
2023/08/21 10:07:57;;;;;;;8.30;7.60;;;28.80;66.20;;;;;;5067276;28;20415;-69
2023/08/21 10:10:24;;;;;;;9.65;8.65;;;28.60;66.50;;;;;;5062546;28;20438;-70
2023/08/21 10:12:52;;;;;;;10.52;8.98;;;28.30;67.90;;;;;;5072556;28;20414;-69
2023/08/21 10:15:19;;;;;;;9.00;8.10;;;28.20;67.70;;;;;;5068257;28;20423;-69
2023/08/21 10:17:46;;;;;;;9.30;7.47;;;28.10;69.60;;;;;;5068239;28;20427;-69
2023/08/21 10:20:13;;;;;;;7.73;6.80;;;28.20;69.60;;;;;;5061991;28;20408;-68
2023/08/21 10:22:43;;;;;;;6.70;6.00;;;28.40;69.30;;;;;;5064489;28;20436;-69
2023/08/21 10:25:19;;;;;;;6.90;6.20;;;28.60;68.40;;;;;;5074990;28;20419;-68
2023/08/21 10:27:47;;;;;;;8.20;6.70;;;28.60;68.20;;;;;;5062688;28;20894;-68
2023/08/21 10:30:20;;;;;;;9.20;8.40;;;28.70;67.80;;;;;;5058112;28;20485;-68
2023/08/21 10:32:48;;;;;;;8.23;7.53;;;28.90;66.40;;;;;;5066924;28;20435;-66
2023/08/21 10:35:16;;;;;;;10.88;9.88;;;29.10;65.80;;;;;;5032752;28;20433;-67
2023/08/21 10:38:11;;;;;;;8.82;7.97;;;29.30;62.90;;;;;;5027656;28;20446;-67
2023/08/21 10:40:38;;;;;;;9.07;8.00;;;29.30;64.40;;;;;;5028757;28;20435;-67
2023/08/21 10:43:25;;;;;;;9.37;7.53;;;29.40;64.80;;;;;;5028445;28;20838;-69
2023/08/21 10:45:57;;;;;;;9.40;8.50;;;29.50;63.50;;;;;;5047805;28;20434;-69
2023/08/21 10:48:23;;;;;;;8.05;7.25;;;29.80;61.70;;;;;;5055652;28;20433;-68
2023/08/21 10:50:50;;;;;;;9.03;8.23;;;29.80;62.90;;;;;;5064146;28;20433;-70
2023/08/21 10:53:18;;;;;;;7.47;6.78;;;29.80;61.20;;;;;;5059285;28;20921;-69
2023/08/21 10:55:44;;;;;;;8.00;6.90;;;29.90;61.60;;;;;;5060956;28;20455;-69
2023/08/21 10:58:12;;;;;;;7.05;6.07;;;29.90;62.40;;;;;;5068690;28;20411;-71
2023/08/21 11:00:39;;;;;;;8.35;7.65;;;29.80;61.90;;;;;;5065074;28;20427;-74
2023/08/21 11:03:07;;;;;;;8.57;7.70;;;29.80;62.20;;;;;;5065487;28;20440;-74
2023/08/21 11:05:33;;;;;;;9.55;8.75;;;30.00;60.80;;;;;;5064290;28;20423;-74
2023/08/21 11:08:00;;;;;;;9.15;8.00;;;30.30;58.70;;;;;;5064988;28;20437;-74
2023/08/21 11:10:30;;;;;;;8.80;8.00;;;30.30;58.70;;;;;;5063956;28;20424;-73
2023/08/21 11:12:59;;;;;;;10.30;9.40;;;30.50;57.50;;;;;;5065074;28;20430;-74
2023/08/21 11:15:27;;;;;;;8.05;7.28;;;30.60;57.80;;;;;;5059962;28;20437;-74
2023/08/21 11:17:56;;;;;;;8.50;7.70;;;30.70;58.10;;;;;;5064558;28;20435;-74
2023/08/21 11:20:29;;;;;;;8.85;7.95;;;30.80;56.70;;;;;;5058692;28;20857;-74
2023/08/21 11:22:58;;;;;;;8.93;8.13;;;31.00;56.10;;;;;;5060666;28;20435;-74
2023/08/21 11:25:25;;;;;;;8.43;7.53;;;31.10;54.10;;;;;;5061986;28;20436;-71
2023/08/21 11:27:53;;;;;;;9.20;8.40;;;31.20;54.00;;;;;;5061883;28;20427;-72
2023/08/21 11:30:22;;;;;;;8.80;8.10;;;31.20;53.30;;;;;;5057027;28;20428;-72
2023/08/21 11:32:50;;;;;;;9.07;8.27;;;31.30;52.80;;;;;;5066479;28;20435;-71
2023/08/21 11:35:17;;;;;;;7.60;7.00;;;31.40;51.80;;;;;;5062879;28;20521;-72
2023/08/21 11:37:46;;;;;;;7.70;6.90;;;31.40;51.90;;;;;;5063742;28;20813;-71
2023/08/21 11:40:14;;;;;;;7.45;6.47;;;31.30;52.80;;;;;;5062743;28;20435;-72
2023/08/21 11:42:41;;;;;;;6.70;6.20;;;31.50;53.10;;;;;;5061039;28;20485;-72
2023/08/21 11:45:10;;;;;;;7.55;6.72;;;31.60;52.50;;;;;;5058681;28;20421;-72
2023/08/21 11:47:37;;;;;;;7.10;6.50;;;31.70;52.00;;;;;;5065075;28;20431;-73
2023/08/21 11:50:05;;;;;;;6.63;6.03;;;31.90;51.00;;;;;;5065303;28;20428;-72
2023/08/21 11:52:32;;;;;;;5.60;5.20;;;32.10;50.20;;;;;;5060196;28;20427;-72
2023/08/21 11:55:00;;;;;;;5.15;4.63;;;32.30;51.10;;;;;;5062455;28;20433;-71
2023/08/21 11:57:29;;;;;;;6.50;5.90;;;32.50;50.00;;;;;;5061689;28;20414;-72
2023/08/21 11:59:56;;;;;;;5.60;5.10;;;32.70;47.90;;;;;;5052173;28;20447;-72
2023/08/21 12:02:25;;;;;;;6.95;4.20;;;32.70;48.70;;;;;;5059653;28;20436;-71
2023/08/21 12:04:55;;;;;;;4.72;4.32;;;32.80;47.30;;;;;;5059962;28;21787;-72
2023/08/21 12:07:22;;;;;;;5.20;4.70;;;32.90;46.50;;;;;;5063563;28;20427;-72
2023/08/21 12:09:50;;;;;;;4.40;3.83;;;33.00;45.90;;;;;;5067906;28;20877;-72
2023/08/21 12:12:18;;;;;;;4.00;3.70;;;33.10;45.80;;;;;;5058689;28;20420;-71
2023/08/21 12:14:45;;;;;;;4.20;3.70;;;33.20;45.40;;;;;;5068442;28;20918;-72
2023/08/21 12:17:11;;;;;;;4.50;3.80;;;33.30;44.60;;;;;;5062458;28;20438;-72
2023/08/21 12:19:38;;;;;;;4.50;4.20;;;33.20;44.90;;;;;;5060968;28;20917;-70
2023/08/21 12:22:05;;;;;;;3.70;3.40;;;33.00;48.20;;;;;;5066756;28;20927;-70
2023/08/21 12:24:32;;;;;;;4.40;3.37;;;32.60;46.10;;;;;;5056720;28;20417;-71
2023/08/21 12:26:59;;;;;;;4.03;2.90;;;32.50;46.40;;;;;;5054142;28;20430;-70
2023/08/21 12:29:27;;;;;;;3.83;3.28;;;32.70;46.30;;;;;;5050572;28;20417;-70
2023/08/21 12:31:54;;;;;;;3.03;2.70;;;32.90;45.90;;;;;;5062552;28;20793;-69
2023/08/21 12:34:21;;;;;;;4.60;3.70;;;33.10;45.50;;;;;;5065452;28;20530;-69
2023/08/21 12:36:48;;;;;;;4.40;3.08;;;33.40;43.20;;;;;;5055505;28;20647;-70
2023/08/21 12:39:16;;;;;;;3.60;3.30;;;33.50;42.70;;;;;;5063847;28;20561;-69
2023/08/21 12:41:42;;;;;;;3.53;3.20;;;33.30;42.40;;;;;;5063061;28;20472;-69
2023/08/21 12:44:09;;;;;;;3.00;2.70;;;33.20;43.20;;;;;;5063317;28;20901;-67
2023/08/21 12:46:37;;;;;;;4.20;3.00;;;33.40;43.70;;;;;;5062853;28;20428;-68